sensor_id;sensor_type;location;lat;lon;timestamp;P1;durP1;ratioP1;P2;durP2;ratioP2
32032;SDS011;31720;52.638;9.216;2023-12-14T00:01:43;6.13;;;2.40;;
32032;SDS011;31720;52.638;9.216;2023-12-14T00:04:46;3.92;;;2.35;;
32032;SDS011;31720;52.638;9.216;2023-12-14T00:07:48;3.67;;;2.00;;
32032;SDS011;31720;52.638;9.216;2023-12-14T00:10:49;3.47;;;1.83;;
32032;SDS011;31720;52.638;9.216;2023-12-14T00:13:51;4.30;;;1.90;;
32032;SDS011;31720;52.638;9.216;2023-12-14T00:16:52;4.43;;;2.30;;
32032;SDS011;31720;52.638;9.216;2023-12-14T00:19:53;2.97;;;1.70;;
32032;SDS011;31720;52.638;9.216;2023-12-14T00:22:56;3.50;;;1.98;;
32032;SDS011;31720;52.638;9.216;2023-12-14T00:25:57;2.63;;;1.75;;
32032;SDS011;31720;52.638;9.216;2023-12-14T00:28:59;3.42;;;1.80;;
32032;SDS011;31720;52.638;9.216;2023-12-14T00:32:00;3.38;;;1.90;;
32032;SDS011;31720;52.638;9.216;2023-12-14T00:35:01;2.42;;;1.77;;
32032;SDS011;31720;52.638;9.216;2023-12-14T00:38:04;2.45;;;1.77;;
32032;SDS011;31720;52.638;9.216;2023-12-14T00:41:05;2.78;;;1.98;;
32032;SDS011;31720;52.638;9.216;2023-12-14T00:44:07;4.30;;;2.00;;
32032;SDS011;31720;52.638;9.216;2023-12-14T00:47:08;3.53;;;1.98;;
32032;SDS011;31720;52.638;9.216;2023-12-14T00:50:09;2.85;;;1.83;;
32032;SDS011;31720;52.638;9.216;2023-12-14T00:53:12;3.60;;;2.20;;
32032;SDS011;31720;52.638;9.216;2023-12-14T00:56:13;6.03;;;1.70;;
32032;SDS011;31720;52.638;9.216;2023-12-14T00:59:15;3.63;;;2.00;;
32032;SDS011;31720;52.638;9.216;2023-12-14T01:02:16;4.75;;;2.42;;
32032;SDS011;31720;52.638;9.216;2023-12-14T01:05:17;3.67;;;2.30;;
32032;SDS011;31720;52.638;9.216;2023-12-14T01:08:20;3.47;;;2.08;;
32032;SDS011;31720;52.638;9.216;2023-12-14T01:11:21;3.47;;;2.00;;
32032;SDS011;31720;52.638;9.216;2023-12-14T01:14:23;3.13;;;2.10;;
32032;SDS011;31720;52.638;9.216;2023-12-14T01:17:24;4.93;;;3.03;;
32032;SDS011;31720;52.638;9.216;2023-12-14T01:20:25;4.05;;;2.28;;
32032;SDS011;31720;52.638;9.216;2023-12-14T01:23:28;7.57;;;2.75;;
32032;SDS011;31720;52.638;9.216;2023-12-14T01:26:29;4.13;;;2.38;;
32032;SDS011;31720;52.638;9.216;2023-12-14T01:29:31;3.70;;;2.45;;
32032;SDS011;31720;52.638;9.216;2023-12-14T01:32:32;7.03;;;3.58;;
32032;SDS011;31720;52.638;9.216;2023-12-14T01:35:34;4.43;;;2.05;;
32032;SDS011;31720;52.638;9.216;2023-12-14T01:38:36;3.47;;;1.92;;
32032;SDS011;31720;52.638;9.216;2023-12-14T01:41:37;5.82;;;2.88;;
32032;SDS011;31720;52.638;9.216;2023-12-14T01:44:39;4.82;;;2.53;;
32032;SDS011;31720;52.638;9.216;2023-12-14T01:47:40;2.97;;;2.13;;
32032;SDS011;31720;52.638;9.216;2023-12-14T01:50:42;4.30;;;2.45;;
32032;SDS011;31720;52.638;9.216;2023-12-14T01:53:44;3.53;;;2.00;;
32032;SDS011;31720;52.638;9.216;2023-12-14T01:56:46;3.78;;;2.30;;
32032;SDS011;31720;52.638;9.216;2023-12-14T01:59:48;3.40;;;2.33;;
32032;SDS011;31720;52.638;9.216;2023-12-14T02:02:49;4.30;;;2.30;;
32032;SDS011;31720;52.638;9.216;2023-12-14T02:05:50;4.22;;;2.28;;
32032;SDS011;31720;52.638;9.216;2023-12-14T02:08:53;3.42;;;2.38;;
32032;SDS011;31720;52.638;9.216;2023-12-14T02:11:54;4.60;;;1.90;;
32032;SDS011;31720;52.638;9.216;2023-12-14T02:14:56;3.28;;;2.05;;
32032;SDS011;31720;52.638;9.216;2023-12-14T02:17:57;3.90;;;1.95;;
32032;SDS011;31720;52.638;9.216;2023-12-14T02:20:58;4.43;;;1.85;;
32032;SDS011;31720;52.638;9.216;2023-12-14T02:24:01;4.63;;;1.95;;
32032;SDS011;31720;52.638;9.216;2023-12-14T02:27:03;4.90;;;2.75;;
32032;SDS011;31720;52.638;9.216;2023-12-14T02:30:05;6.35;;;2.63;;
32032;SDS011;31720;52.638;9.216;2023-12-14T02:33:07;4.63;;;2.50;;
32032;SDS011;31720;52.638;9.216;2023-12-14T02:36:08;3.88;;;2.22;;
32032;SDS011;31720;52.638;9.216;2023-12-14T02:39:11;4.60;;;2.22;;
32032;SDS011;31720;52.638;9.216;2023-12-14T02:42:12;4.93;;;2.38;;
32032;SDS011;31720;52.638;9.216;2023-12-14T02:45:13;2.80;;;1.83;;
32032;SDS011;31720;52.638;9.216;2023-12-14T02:48:15;5.00;;;3.10;;
32032;SDS011;31720;52.638;9.216;2023-12-14T02:51:16;5.90;;;2.60;;
32032;SDS011;31720;52.638;9.216;2023-12-14T02:54:19;5.00;;;2.45;;
32032;SDS011;31720;52.638;9.216;2023-12-14T02:57:20;4.60;;;2.40;;
32032;SDS011;31720;52.638;9.216;2023-12-14T03:00:21;10.30;;;2.60;;
32032;SDS011;31720;52.638;9.216;2023-12-14T03:03:23;4.05;;;2.50;;
32032;SDS011;31720;52.638;9.216;2023-12-14T03:06:24;4.70;;;2.45;;
32032;SDS011;31720;52.638;9.216;2023-12-14T03:09:27;5.90;;;2.60;;
32032;SDS011;31720;52.638;9.216;2023-12-14T03:12:28;3.72;;;2.40;;
32032;SDS011;31720;52.638;9.216;2023-12-14T03:15:29;4.43;;;2.55;;
32032;SDS011;31720;52.638;9.216;2023-12-14T03:18:31;4.18;;;2.38;;
32032;SDS011;31720;52.638;9.216;2023-12-14T03:21:32;6.47;;;3.05;;
32032;SDS011;31720;52.638;9.216;2023-12-14T03:24:35;5.05;;;2.63;;
32032;SDS011;31720;52.638;9.216;2023-12-14T03:27:36;4.43;;;2.55;;
32032;SDS011;31720;52.638;9.216;2023-12-14T03:30:38;3.53;;;1.98;;
32032;SDS011;31720;52.638;9.216;2023-12-14T03:33:39;4.03;;;2.22;;
32032;SDS011;31720;52.638;9.216;2023-12-14T03:36:41;3.90;;;2.25;;
32032;SDS011;31720;52.638;9.216;2023-12-14T03:39:43;4.88;;;2.10;;
32032;SDS011;31720;52.638;9.216;2023-12-14T03:42:45;7.00;;;2.53;;
32032;SDS011;31720;52.638;9.216;2023-12-14T03:45:46;4.00;;;2.17;;
32032;SDS011;31720;52.638;9.216;2023-12-14T03:48:47;4.30;;;2.35;;
32032;SDS011;31720;52.638;9.216;2023-12-14T03:51:49;6.10;;;2.65;;
32032;SDS011;31720;52.638;9.216;2023-12-14T03:54:51;3.72;;;2.10;;
32032;SDS011;31720;52.638;9.216;2023-12-14T03:57:53;5.13;;;2.50;;
32032;SDS011;31720;52.638;9.216;2023-12-14T04:00:54;5.70;;;2.15;;
32032;SDS011;31720;52.638;9.216;2023-12-14T04:03:55;7.63;;;2.03;;
32032;SDS011;31720;52.638;9.216;2023-12-14T04:06:57;5.05;;;2.47;;
32032;SDS011;31720;52.638;9.216;2023-12-14T04:09:59;6.53;;;2.78;;
32032;SDS011;31720;52.638;9.216;2023-12-14T04:13:00;3.63;;;2.38;;
32032;SDS011;31720;52.638;9.216;2023-12-14T04:16:02;4.70;;;2.33;;
32032;SDS011;31720;52.638;9.216;2023-12-14T04:19:03;5.07;;;2.80;;
32032;SDS011;31720;52.638;9.216;2023-12-14T04:22:09;4.63;;;2.42;;
32032;SDS011;31720;52.638;9.216;2023-12-14T04:25:12;4.47;;;2.38;;
32032;SDS011;31720;52.638;9.216;2023-12-14T04:28:14;6.32;;;2.95;;
32032;SDS011;31720;52.638;9.216;2023-12-14T04:31:15;3.45;;;2.13;;
32032;SDS011;31720;52.638;9.216;2023-12-14T04:34:16;4.30;;;2.35;;
32032;SDS011;31720;52.638;9.216;2023-12-14T04:37:19;5.78;;;2.67;;
32032;SDS011;31720;52.638;9.216;2023-12-14T04:40:21;4.57;;;2.45;;
32032;SDS011;31720;52.638;9.216;2023-12-14T04:43:23;3.20;;;2.03;;
32032;SDS011;31720;52.638;9.216;2023-12-14T04:46:24;4.63;;;2.70;;
32032;SDS011;31720;52.638;9.216;2023-12-14T04:49:25;3.85;;;2.25;;
32032;SDS011;31720;52.638;9.216;2023-12-14T04:52:27;4.28;;;2.13;;
32032;SDS011;31720;52.638;9.216;2023-12-14T04:55:29;4.32;;;2.45;;
32032;SDS011;31720;52.638;9.216;2023-12-14T04:58:31;4.90;;;2.20;;
32032;SDS011;31720;52.638;9.216;2023-12-14T05:01:32;5.50;;;2.60;;
32032;SDS011;31720;52.638;9.216;2023-12-14T05:04:33;4.25;;;2.33;;
32032;SDS011;31720;52.638;9.216;2023-12-14T05:07:34;4.03;;;2.10;;
32032;SDS011;31720;52.638;9.216;2023-12-14T05:10:37;3.63;;;1.98;;
32032;SDS011;31720;52.638;9.216;2023-12-14T05:13:39;7.15;;;2.20;;
32032;SDS011;31720;52.638;9.216;2023-12-14T05:16:40;4.68;;;2.28;;
32032;SDS011;31720;52.638;9.216;2023-12-14T05:19:41;4.00;;;2.33;;
32032;SDS011;31720;52.638;9.216;2023-12-14T05:22:42;5.57;;;2.10;;
32032;SDS011;31720;52.638;9.216;2023-12-14T05:25:45;7.25;;;2.13;;
32032;SDS011;31720;52.638;9.216;2023-12-14T05:28:47;4.35;;;2.55;;
32032;SDS011;31720;52.638;9.216;2023-12-14T05:31:48;3.38;;;2.00;;
32032;SDS011;31720;52.638;9.216;2023-12-14T05:34:50;3.80;;;2.05;;
32032;SDS011;31720;52.638;9.216;2023-12-14T05:37:51;3.40;;;2.08;;
32032;SDS011;31720;52.638;9.216;2023-12-14T05:40:54;3.55;;;2.08;;
32032;SDS011;31720;52.638;9.216;2023-12-14T05:43:55;2.95;;;1.90;;
32032;SDS011;31720;52.638;9.216;2023-12-14T05:46:56;4.05;;;2.25;;
32032;SDS011;31720;52.638;9.216;2023-12-14T05:49:58;4.38;;;2.47;;
32032;SDS011;31720;52.638;9.216;2023-12-14T05:52:59;3.92;;;2.35;;
32032;SDS011;31720;52.638;9.216;2023-12-14T05:56:02;6.05;;;1.95;;
32032;SDS011;31720;52.638;9.216;2023-12-14T05:59:03;2.50;;;1.90;;
32032;SDS011;31720;52.638;9.216;2023-12-14T06:02:05;3.65;;;2.25;;
32032;SDS011;31720;52.638;9.216;2023-12-14T06:05:07;4.40;;;2.00;;
32032;SDS011;31720;52.638;9.216;2023-12-14T06:08:09;3.63;;;2.05;;
32032;SDS011;31720;52.638;9.216;2023-12-14T06:11:11;5.57;;;1.63;;
32032;SDS011;31720;52.638;9.216;2023-12-14T06:14:13;3.55;;;1.98;;
32032;SDS011;31720;52.638;9.216;2023-12-14T06:17:14;3.58;;;2.05;;
32032;SDS011;31720;52.638;9.216;2023-12-14T06:20:15;4.32;;;1.95;;
32032;SDS011;31720;52.638;9.216;2023-12-14T06:23:17;2.33;;;1.80;;
32032;SDS011;31720;52.638;9.216;2023-12-14T06:26:20;3.92;;;2.03;;
32032;SDS011;31720;52.638;9.216;2023-12-14T06:29:22;1.98;;;1.27;;
32032;SDS011;31720;52.638;9.216;2023-12-14T06:32:23;2.28;;;1.55;;
32032;SDS011;31720;52.638;9.216;2023-12-14T06:35:24;3.70;;;1.83;;
32032;SDS011;31720;52.638;9.216;2023-12-14T06:38:25;6.13;;;1.92;;
32032;SDS011;31720;52.638;9.216;2023-12-14T06:41:28;3.80;;;2.00;;
32032;SDS011;31720;52.638;9.216;2023-12-14T06:44:30;2.63;;;1.83;;
32032;SDS011;31720;52.638;9.216;2023-12-14T06:47:31;2.42;;;1.55;;
32032;SDS011;31720;52.638;9.216;2023-12-14T06:50:32;3.10;;;1.58;;
32032;SDS011;31720;52.638;9.216;2023-12-14T06:53:34;2.42;;;1.80;;
32032;SDS011;31720;52.638;9.216;2023-12-14T06:56:38;1.85;;;1.55;;
32032;SDS011;31720;52.638;9.216;2023-12-14T06:59:39;3.08;;;1.58;;
32032;SDS011;31720;52.638;9.216;2023-12-14T07:02:41;3.33;;;1.90;;
32032;SDS011;31720;52.638;9.216;2023-12-14T07:05:44;2.45;;;1.65;;
32032;SDS011;31720;52.638;9.216;2023-12-14T07:08:45;7.07;;;1.60;;
32032;SDS011;31720;52.638;9.216;2023-12-14T07:11:48;3.35;;;1.95;;
32032;SDS011;31720;52.638;9.216;2023-12-14T07:14:50;2.53;;;1.85;;
32032;SDS011;31720;52.638;9.216;2023-12-14T07:17:51;3.35;;;1.77;;
32032;SDS011;31720;52.638;9.216;2023-12-14T07:20:52;2.08;;;1.48;;
32032;SDS011;31720;52.638;9.216;2023-12-14T07:23:54;2.38;;;1.60;;
32032;SDS011;31720;52.638;9.216;2023-12-14T07:26:56;3.88;;;1.80;;
32032;SDS011;31720;52.638;9.216;2023-12-14T07:29:58;2.08;;;1.40;;
32032;SDS011;31720;52.638;9.216;2023-12-14T07:32:59;1.73;;;1.42;;
32032;SDS011;31720;52.638;9.216;2023-12-14T07:36:00;1.73;;;1.30;;
32032;SDS011;31720;52.638;9.216;2023-12-14T07:39:02;2.13;;;1.48;;
32032;SDS011;31720;52.638;9.216;2023-12-14T07:42:05;1.85;;;1.20;;
32032;SDS011;31720;52.638;9.216;2023-12-14T07:45:07;1.40;;;1.25;;
32032;SDS011;31720;52.638;9.216;2023-12-14T07:48:09;1.65;;;1.33;;
32032;SDS011;31720;52.638;9.216;2023-12-14T07:51:11;1.42;;;1.10;;
32032;SDS011;31720;52.638;9.216;2023-12-14T07:54:13;1.98;;;1.25;;
32032;SDS011;31720;52.638;9.216;2023-12-14T07:57:16;1.45;;;1.15;;
32032;SDS011;31720;52.638;9.216;2023-12-14T08:00:17;1.70;;;1.38;;
32032;SDS011;31720;52.638;9.216;2023-12-14T08:03:19;2.33;;;1.40;;
32032;SDS011;31720;52.638;9.216;2023-12-14T08:06:20;4.88;;;1.70;;
32032;SDS011;31720;52.638;9.216;2023-12-14T08:09:22;2.30;;;1.42;;
32032;SDS011;31720;52.638;9.216;2023-12-14T08:12:24;2.75;;;1.27;;
32032;SDS011;31720;52.638;9.216;2023-12-14T08:15:26;1.52;;;1.10;;
32032;SDS011;31720;52.638;9.216;2023-12-14T08:18:28;1.23;;;1.13;;
32032;SDS011;31720;52.638;9.216;2023-12-14T08:21:29;1.88;;;1.13;;
32032;SDS011;31720;52.638;9.216;2023-12-14T08:24:31;1.40;;;0.90;;
32032;SDS011;31720;52.638;9.216;2023-12-14T08:27:33;1.88;;;1.00;;
32032;SDS011;31720;52.638;9.216;2023-12-14T08:30:35;3.55;;;1.90;;
32032;SDS011;31720;52.638;9.216;2023-12-14T08:33:40;3.35;;;1.75;;
32032;SDS011;31720;52.638;9.216;2023-12-14T08:36:42;5.55;;;2.63;;
32032;SDS011;31720;52.638;9.216;2023-12-14T08:39:43;7.00;;;3.55;;
32032;SDS011;31720;52.638;9.216;2023-12-14T08:42:47;9.00;;;4.18;;
32032;SDS011;31720;52.638;9.216;2023-12-14T08:45:49;5.60;;;3.22;;
32032;SDS011;31720;52.638;9.216;2023-12-14T08:48:50;4.97;;;2.15;;
32032;SDS011;31720;52.638;9.216;2023-12-14T08:51:52;4.38;;;2.33;;
32032;SDS011;31720;52.638;9.216;2023-12-14T08:54:54;4.68;;;2.65;;
32032;SDS011;31720;52.638;9.216;2023-12-14T08:57:56;3.97;;;2.03;;
32032;SDS011;31720;52.638;9.216;2023-12-14T09:00:58;6.93;;;3.15;;
32032;SDS011;31720;52.638;9.216;2023-12-14T09:04:00;5.13;;;2.20;;
32032;SDS011;31720;52.638;9.216;2023-12-14T09:07:01;3.55;;;1.77;;
32032;SDS011;31720;52.638;9.216;2023-12-14T09:10:05;2.15;;;1.50;;
32032;SDS011;31720;52.638;9.216;2023-12-14T09:13:08;1.85;;;1.42;;
32032;SDS011;31720;52.638;9.216;2023-12-14T09:16:10;1.90;;;1.38;;
32032;SDS011;31720;52.638;9.216;2023-12-14T09:19:11;1.75;;;1.20;;
32032;SDS011;31720;52.638;9.216;2023-12-14T09:22:12;2.97;;;1.40;;
32032;SDS011;31720;52.638;9.216;2023-12-14T09:25:14;1.92;;;1.23;;
32032;SDS011;31720;52.638;9.216;2023-12-14T09:28:17;1.38;;;1.10;;
32032;SDS011;31720;52.638;9.216;2023-12-14T09:31:18;2.30;;;1.15;;
32032;SDS011;31720;52.638;9.216;2023-12-14T09:34:19;2.45;;;1.20;;
32032;SDS011;31720;52.638;9.216;2023-12-14T09:37:21;1.77;;;1.20;;
32032;SDS011;31720;52.638;9.216;2023-12-14T09:40:22;2.28;;;1.33;;
32032;SDS011;31720;52.638;9.216;2023-12-14T09:43:25;3.20;;;1.63;;
32032;SDS011;31720;52.638;9.216;2023-12-14T09:46:26;11.38;;;5.05;;
32032;SDS011;31720;52.638;9.216;2023-12-14T09:49:29;4.18;;;2.00;;
32032;SDS011;31720;52.638;9.216;2023-12-14T09:52:31;2.75;;;1.40;;
32032;SDS011;31720;52.638;9.216;2023-12-14T09:55:33;2.83;;;1.77;;
32032;SDS011;31720;52.638;9.216;2023-12-14T09:58:36;2.63;;;1.48;;
32032;SDS011;31720;52.638;9.216;2023-12-14T10:01:37;4.32;;;2.28;;
32032;SDS011;31720;52.638;9.216;2023-12-14T10:04:39;3.65;;;1.92;;
32032;SDS011;31720;52.638;9.216;2023-12-14T10:07:41;5.40;;;1.95;;
32032;SDS011;31720;52.638;9.216;2023-12-14T10:10:43;4.20;;;1.90;;
32032;SDS011;31720;52.638;9.216;2023-12-14T10:13:46;6.95;;;2.40;;
32032;SDS011;31720;52.638;9.216;2023-12-14T10:16:48;4.57;;;1.83;;
32032;SDS011;31720;52.638;9.216;2023-12-14T10:19:50;3.97;;;2.00;;
32032;SDS011;31720;52.638;9.216;2023-12-14T10:22:52;3.70;;;1.75;;
32032;SDS011;31720;52.638;9.216;2023-12-14T10:25:56;4.45;;;2.10;;
32032;SDS011;31720;52.638;9.216;2023-12-14T10:28:59;3.72;;;1.85;;
32032;SDS011;31720;52.638;9.216;2023-12-14T10:32:03;4.00;;;2.00;;
32032;SDS011;31720;52.638;9.216;2023-12-14T10:35:06;3.80;;;1.88;;
32032;SDS011;31720;52.638;9.216;2023-12-14T10:38:08;9.00;;;2.47;;
32032;SDS011;31720;52.638;9.216;2023-12-14T10:41:11;5.10;;;2.58;;
32032;SDS011;31720;52.638;9.216;2023-12-14T10:44:15;5.07;;;2.58;;
32032;SDS011;31720;52.638;9.216;2023-12-14T10:47:18;4.38;;;2.25;;
32032;SDS011;31720;52.638;9.216;2023-12-14T10:50:20;6.85;;;3.13;;
32032;SDS011;31720;52.638;9.216;2023-12-14T10:53:22;7.07;;;2.90;;
32032;SDS011;31720;52.638;9.216;2023-12-14T10:56:24;7.75;;;3.10;;
32032;SDS011;31720;52.638;9.216;2023-12-14T10:59:28;8.00;;;3.10;;
32032;SDS011;31720;52.638;9.216;2023-12-14T11:02:29;6.97;;;2.95;;
32032;SDS011;31720;52.638;9.216;2023-12-14T11:05:38;7.57;;;3.00;;
32032;SDS011;31720;52.638;9.216;2023-12-14T11:08:39;6.65;;;3.00;;
32032;SDS011;31720;52.638;9.216;2023-12-14T11:11:41;8.80;;;3.13;;
32032;SDS011;31720;52.638;9.216;2023-12-14T11:14:46;6.60;;;3.20;;
32032;SDS011;31720;52.638;9.216;2023-12-14T11:21:21;5.82;;;2.85;;
32032;SDS011;31720;52.638;9.216;2023-12-14T11:24:24;8.50;;;3.25;;
32032;SDS011;31720;52.638;9.216;2023-12-14T11:27:28;10.73;;;3.25;;
32032;SDS011;31720;52.638;9.216;2023-12-14T11:30:32;8.57;;;3.60;;
32032;SDS011;31720;52.638;9.216;2023-12-14T11:33:34;7.75;;;3.50;;
32032;SDS011;31720;52.638;9.216;2023-12-14T11:36:35;9.27;;;3.70;;
32032;SDS011;31720;52.638;9.216;2023-12-14T11:39:39;7.57;;;3.67;;
32032;SDS011;31720;52.638;9.216;2023-12-14T11:42:41;8.52;;;3.92;;
32032;SDS011;31720;52.638;9.216;2023-12-14T11:45:47;6.65;;;3.30;;
32032;SDS011;31720;52.638;9.216;2023-12-14T11:48:49;7.10;;;3.53;;
32032;SDS011;31720;52.638;9.216;2023-12-14T11:51:51;6.68;;;3.78;;
32032;SDS011;31720;52.638;9.216;2023-12-14T11:54:53;8.32;;;3.53;;
32032;SDS011;31720;52.638;9.216;2023-12-14T11:57:55;7.93;;;4.00;;
32032;SDS011;31720;52.638;9.216;2023-12-14T12:00:57;9.55;;;4.90;;
32032;SDS011;31720;52.638;9.216;2023-12-14T12:04:11;8.82;;;3.88;;
32032;SDS011;31720;52.638;9.216;2023-12-14T12:07:13;11.73;;;4.10;;
32032;SDS011;31720;52.638;9.216;2023-12-14T12:10:18;7.65;;;3.80;;
32032;SDS011;31720;52.638;9.216;2023-12-14T12:13:19;11.32;;;4.65;;
32032;SDS011;31720;52.638;9.216;2023-12-14T12:16:22;12.15;;;4.60;;
32032;SDS011;31720;52.638;9.216;2023-12-14T12:19:25;8.77;;;3.65;;
32032;SDS011;31720;52.638;9.216;2023-12-14T12:22:26;9.15;;;4.53;;
32032;SDS011;31720;52.638;9.216;2023-12-14T12:25:27;8.68;;;4.45;;
32032;SDS011;31720;52.638;9.216;2023-12-14T12:28:29;9.57;;;4.32;;
32032;SDS011;31720;52.638;9.216;2023-12-14T12:31:32;14.73;;;5.15;;
32032;SDS011;31720;52.638;9.216;2023-12-14T12:34:34;8.70;;;4.18;;
32032;SDS011;31720;52.638;9.216;2023-12-14T12:37:36;6.18;;;3.63;;
32032;SDS011;31720;52.638;9.216;2023-12-14T12:40:37;10.35;;;3.85;;
32032;SDS011;31720;52.638;9.216;2023-12-14T12:43:39;8.70;;;4.15;;
32032;SDS011;31720;52.638;9.216;2023-12-14T12:46:42;8.93;;;4.22;;
32032;SDS011;31720;52.638;9.216;2023-12-14T12:49:43;9.82;;;4.88;;
32032;SDS011;31720;52.638;9.216;2023-12-14T12:52:45;11.50;;;4.55;;
32032;SDS011;31720;52.638;9.216;2023-12-14T12:55:48;10.93;;;4.60;;
32032;SDS011;31720;52.638;9.216;2023-12-14T12:58:50;8.60;;;4.03;;
32032;SDS011;31720;52.638;9.216;2023-12-14T13:01:55;9.13;;;4.25;;
32032;SDS011;31720;52.638;9.216;2023-12-14T13:04:56;6.95;;;3.42;;
32032;SDS011;31720;52.638;9.216;2023-12-14T13:07:57;10.60;;;5.50;;
32032;SDS011;31720;52.638;9.216;2023-12-14T13:10:59;10.23;;;5.00;;
32032;SDS011;31720;52.638;9.216;2023-12-14T13:14:01;8.80;;;4.60;;
32032;SDS011;31720;52.638;9.216;2023-12-14T13:17:09;12.38;;;5.40;;
32032;SDS011;31720;52.638;9.216;2023-12-14T13:20:10;11.20;;;5.15;;
32032;SDS011;31720;52.638;9.216;2023-12-14T13:23:12;12.13;;;5.63;;
32032;SDS011;31720;52.638;9.216;2023-12-14T13:26:13;12.05;;;5.45;;
32032;SDS011;31720;52.638;9.216;2023-12-14T13:29:14;11.00;;;5.03;;
32032;SDS011;31720;52.638;9.216;2023-12-14T13:32:17;11.35;;;5.45;;
32032;SDS011;31720;52.638;9.216;2023-12-14T13:35:18;10.95;;;5.28;;
32032;SDS011;31720;52.638;9.216;2023-12-14T13:38:20;9.55;;;5.25;;
32032;SDS011;31720;52.638;9.216;2023-12-14T13:41:21;12.95;;;5.53;;
32032;SDS011;31720;52.638;9.216;2023-12-14T13:44:23;11.98;;;5.50;;
32032;SDS011;31720;52.638;9.216;2023-12-14T13:47:25;10.07;;;5.13;;
32032;SDS011;31720;52.638;9.216;2023-12-14T13:50:27;11.05;;;5.45;;
32032;SDS011;31720;52.638;9.216;2023-12-14T13:53:28;12.25;;;5.80;;
32032;SDS011;31720;52.638;9.216;2023-12-14T13:56:30;14.80;;;5.68;;
32032;SDS011;31720;52.638;9.216;2023-12-14T13:59:32;11.75;;;5.40;;
32032;SDS011;31720;52.638;9.216;2023-12-14T14:02:35;12.55;;;5.45;;
32032;SDS011;31720;52.638;9.216;2023-12-14T14:05:36;10.23;;;5.25;;
32032;SDS011;31720;52.638;9.216;2023-12-14T14:08:38;11.20;;;5.72;;
32032;SDS011;31720;52.638;9.216;2023-12-14T14:11:39;9.13;;;5.03;;
32032;SDS011;31720;52.638;9.216;2023-12-14T14:14:45;17.20;;;6.05;;
32032;SDS011;31720;52.638;9.216;2023-12-14T14:17:47;10.73;;;5.30;;
32032;SDS011;31720;52.638;9.216;2023-12-14T14:20:51;12.70;;;5.60;;
32032;SDS011;31720;52.638;9.216;2023-12-14T14:23:53;13.20;;;5.35;;
32032;SDS011;31720;52.638;9.216;2023-12-14T14:26:54;13.15;;;4.70;;
32032;SDS011;31720;52.638;9.216;2023-12-14T14:29:56;9.70;;;4.85;;
32032;SDS011;31720;52.638;9.216;2023-12-14T14:32:58;9.98;;;5.03;;
32032;SDS011;31720;52.638;9.216;2023-12-14T14:36:00;11.32;;;4.53;;
32032;SDS011;31720;52.638;9.216;2023-12-14T14:39:05;13.35;;;5.00;;
32032;SDS011;31720;52.638;9.216;2023-12-14T14:42:06;8.73;;;4.30;;
32032;SDS011;31720;52.638;9.216;2023-12-14T14:45:08;11.80;;;5.65;;
32032;SDS011;31720;52.638;9.216;2023-12-14T14:48:11;8.63;;;4.30;;
32032;SDS011;31720;52.638;9.216;2023-12-14T14:51:13;13.25;;;4.60;;
32032;SDS011;31720;52.638;9.216;2023-12-14T14:54:14;16.48;;;5.75;;
32032;SDS011;31720;52.638;9.216;2023-12-14T14:57:15;8.05;;;4.22;;
32032;SDS011;31720;52.638;9.216;2023-12-14T15:00:17;12.30;;;5.57;;
32032;SDS011;31720;52.638;9.216;2023-12-14T15:03:20;11.50;;;5.15;;
32032;SDS011;31720;52.638;9.216;2023-12-14T15:06:22;11.70;;;5.35;;
32032;SDS011;31720;52.638;9.216;2023-12-14T15:09:23;10.60;;;4.53;;
32032;SDS011;31720;52.638;9.216;2023-12-14T15:12:25;12.73;;;4.95;;
32032;SDS011;31720;52.638;9.216;2023-12-14T15:15:26;12.00;;;4.90;;
32032;SDS011;31720;52.638;9.216;2023-12-14T15:18:28;9.25;;;4.70;;
32032;SDS011;31720;52.638;9.216;2023-12-14T15:21:30;13.82;;;5.30;;
32032;SDS011;31720;52.638;9.216;2023-12-14T15:24:31;9.05;;;4.82;;
32032;SDS011;31720;52.638;9.216;2023-12-14T15:27:33;11.60;;;4.97;;
32032;SDS011;31720;52.638;9.216;2023-12-14T15:30:34;11.52;;;5.28;;
32032;SDS011;31720;52.638;9.216;2023-12-14T15:33:37;8.02;;;4.10;;
32032;SDS011;31720;52.638;9.216;2023-12-14T15:36:38;13.20;;;4.82;;
32032;SDS011;31720;52.638;9.216;2023-12-14T15:39:40;10.40;;;5.20;;
32032;SDS011;31720;52.638;9.216;2023-12-14T15:42:43;11.60;;;4.18;;
32032;SDS011;31720;52.638;9.216;2023-12-14T15:45:44;9.60;;;4.60;;
32032;SDS011;31720;52.638;9.216;2023-12-14T15:48:47;13.00;;;5.28;;
32032;SDS011;31720;52.638;9.216;2023-12-14T15:51:48;10.05;;;4.72;;
32032;SDS011;31720;52.638;9.216;2023-12-14T15:54:49;9.75;;;4.85;;
32032;SDS011;31720;52.638;9.216;2023-12-14T15:57:51;9.35;;;4.95;;
32032;SDS011;31720;52.638;9.216;2023-12-14T16:00:52;10.52;;;4.53;;
32032;SDS011;31720;52.638;9.216;2023-12-14T16:03:56;12.85;;;5.05;;
32032;SDS011;31720;52.638;9.216;2023-12-14T16:06:57;12.63;;;5.50;;
32032;SDS011;31720;52.638;9.216;2023-12-14T16:10:00;10.23;;;4.43;;
32032;SDS011;31720;52.638;9.216;2023-12-14T16:13:02;11.18;;;4.85;;
32032;SDS011;31720;52.638;9.216;2023-12-14T16:16:04;13.50;;;5.50;;
32032;SDS011;31720;52.638;9.216;2023-12-14T16:19:07;10.85;;;5.05;;
32032;SDS011;31720;52.638;9.216;2023-12-14T16:22:08;11.05;;;4.40;;
32032;SDS011;31720;52.638;9.216;2023-12-14T16:25:10;12.52;;;6.13;;
32032;SDS011;31720;52.638;9.216;2023-12-14T16:28:11;11.43;;;4.93;;
32032;SDS011;31720;52.638;9.216;2023-12-14T16:31:12;18.48;;;5.80;;
32032;SDS011;31720;52.638;9.216;2023-12-14T16:34:15;11.82;;;5.03;;
32032;SDS011;31720;52.638;9.216;2023-12-14T16:37:17;8.82;;;4.78;;
32032;SDS011;31720;52.638;9.216;2023-12-14T16:40:18;11.52;;;5.80;;
32032;SDS011;31720;52.638;9.216;2023-12-14T16:43:20;9.57;;;4.93;;
32032;SDS011;31720;52.638;9.216;2023-12-14T16:46:21;11.75;;;5.03;;
32032;SDS011;31720;52.638;9.216;2023-12-14T16:49:25;10.55;;;4.90;;
32032;SDS011;31720;52.638;9.216;2023-12-14T16:52:27;18.30;;;6.80;;
32032;SDS011;31720;52.638;9.216;2023-12-14T16:55:29;12.23;;;5.47;;
32032;SDS011;31720;52.638;9.216;2023-12-14T16:58:30;14.65;;;6.57;;
32032;SDS011;31720;52.638;9.216;2023-12-14T17:01:35;12.43;;;6.00;;
32032;SDS011;31720;52.638;9.216;2023-12-14T17:04:39;9.80;;;5.00;;
32032;SDS011;31720;52.638;9.216;2023-12-14T17:07:41;13.20;;;6.18;;
32032;SDS011;31720;52.638;9.216;2023-12-14T17:10:42;14.73;;;5.22;;
32032;SDS011;31720;52.638;9.216;2023-12-14T17:13:43;12.30;;;5.10;;
32032;SDS011;31720;52.638;9.216;2023-12-14T17:16:45;15.20;;;5.45;;
32032;SDS011;31720;52.638;9.216;2023-12-14T17:19:48;12.20;;;5.30;;
32032;SDS011;31720;52.638;9.216;2023-12-14T17:22:49;19.73;;;6.47;;
32032;SDS011;31720;52.638;9.216;2023-12-14T17:25:50;16.10;;;5.20;;
32032;SDS011;31720;52.638;9.216;2023-12-14T17:28:53;13.93;;;6.35;;
32032;SDS011;31720;52.638;9.216;2023-12-14T17:31:56;12.75;;;5.53;;
32032;SDS011;31720;52.638;9.216;2023-12-14T17:34:58;18.80;;;7.63;;
32032;SDS011;31720;52.638;9.216;2023-12-14T17:38:00;14.23;;;6.68;;
32032;SDS011;31720;52.638;9.216;2023-12-14T17:41:02;14.73;;;7.57;;
32032;SDS011;31720;52.638;9.216;2023-12-14T17:44:05;17.45;;;7.03;;
32032;SDS011;31720;52.638;9.216;2023-12-14T17:47:06;17.35;;;8.27;;
32032;SDS011;31720;52.638;9.216;2023-12-14T17:50:09;21.15;;;8.43;;
32032;SDS011;31720;52.638;9.216;2023-12-14T17:53:10;18.75;;;9.10;;
32032;SDS011;31720;52.638;9.216;2023-12-14T17:56:12;17.88;;;8.77;;
32032;SDS011;31720;52.638;9.216;2023-12-14T17:59:13;14.95;;;7.82;;
32032;SDS011;31720;52.638;9.216;2023-12-14T18:02:15;17.13;;;7.05;;
32032;SDS011;31720;52.638;9.216;2023-12-14T18:05:17;19.80;;;9.30;;
32032;SDS011;31720;52.638;9.216;2023-12-14T18:08:19;25.23;;;9.70;;
32032;SDS011;31720;52.638;9.216;2023-12-14T18:11:20;22.10;;;8.90;;
32032;SDS011;31720;52.638;9.216;2023-12-14T18:14:21;25.25;;;9.48;;